Time;durP1;ratioP1;P1;durP2;ratioP2;P2;SDS_P1;SDS_P2;PMS_P1;PMS_P2;Temp;Humidity;BMP_temperature;BMP_pressure;BME280_temperature;BME280_humidity;BME280_pressure;Samples;Min_cycle;Max_cycle;Signal;HPM_P1;HPM_P2
2022/04/26 03:36:24;;;;;;;14.27;10.03;;;;;;;6.39;100.00;101171.13;5025211;28;20234;-57
2022/04/26 03:38:52;;;;;;;14.17;9.93;;;;;;;6.46;100.00;101173.00;5005669;28;20291;-57
2022/04/26 03:41:18;;;;;;;11.20;9.03;;;;;;;6.44;100.00;101174.69;5019016;28;20247;-58
2022/04/26 03:43:45;;;;;;;9.80;8.80;;;;;;;6.41;100.00;101170.28;5026213;28;20241;-57
2022/04/26 03:46:11;;;;;;;13.63;10.20;;;;;;;6.38;100.00;101174.53;5017659;28;20260;-57
2022/04/26 03:48:37;;;;;;;11.80;9.10;;;;;;;6.39;100.00;101176.31;5019718;28;20816;-57
2022/04/26 03:51:05;;;;;;;11.97;9.57;;;;;;;6.39;100.00;101173.72;5015834;28;20708;-57
2022/04/26 03:53:31;;;;;;;12.57;9.60;;;;;;;6.39;100.00;101181.53;5014582;28;20250;-56
2022/04/26 03:55:58;;;;;;;15.00;9.93;;;;;;;6.35;100.00;101177.97;5017203;28;20252;-56
2022/04/26 03:58:25;;;;;;;10.93;8.53;;;;;;;6.39;100.00;101178.94;5016671;28;20228;-58
2022/04/26 04:00:51;;;;;;;14.03;10.83;;;;;;;6.38;100.00;101169.31;5032153;28;20239;-57
2022/04/26 04:03:18;;;;;;;13.07;10.40;;;;;;;6.32;100.00;101177.00;5025389;28;20290;-57
2022/04/26 04:05:44;;;;;;;15.23;10.53;;;;;;;6.27;100.00;101168.19;5018617;28;20237;-57
2022/04/26 04:08:12;;;;;;;12.30;10.53;;;;;;;6.25;100.00;101172.50;5018102;28;20237;-57
2022/04/26 04:10:38;;;;;;;12.53;9.37;;;;;;;6.25;100.00;101177.69;5020123;28;20314;-56
2022/04/26 04:13:05;;;;;;;15.17;11.13;;;;;;;6.22;100.00;101179.41;5021604;28;20232;-57
2022/04/26 04:15:31;;;;;;;13.43;9.17;;;;;;;6.23;100.00;101175.06;5022750;28;20282;-56
2022/04/26 04:17:58;;;;;;;13.10;11.30;;;;;;;6.29;100.00;101185.66;5025116;28;20244;-57
2022/04/26 04:20:23;;;;;;;12.53;9.90;;;;;;;6.36;100.00;101186.69;5018968;28;20230;-58
2022/04/26 04:22:53;;;;;;;13.70;10.13;;;;;;;6.36;100.00;101191.91;5027105;28;20310;-57
2022/04/26 04:25:21;;;;;;;15.27;11.37;;;;;;;6.36;100.00;101187.56;5030420;28;20237;-57
2022/04/26 04:27:47;;;;;;;15.23;10.67;;;;;;;6.42;100.00;101190.31;5029832;28;20240;-56
2022/04/26 04:30:14;;;;;;;13.47;9.90;;;;;;;6.39;100.00;101189.38;5026864;28;20232;-56
2022/04/26 04:32:40;;;;;;;17.63;9.87;;;;;;;6.38;100.00;101190.19;5024896;28;20657;-56
2022/04/26 04:35:08;;;;;;;13.73;10.23;;;;;;;6.37;100.00;101188.44;5026757;28;20237;-57
2022/04/26 04:37:34;;;;;;;18.03;10.30;;;;;;;6.32;100.00;101190.94;5020247;28;20237;-56
2022/04/26 04:40:01;;;;;;;11.90;9.80;;;;;;;6.33;100.00;101187.47;5024731;28;20743;-56
2022/04/26 04:42:28;;;;;;;16.23;10.07;;;;;;;6.41;100.00;101190.25;5008510;28;20267;-56
2022/04/26 04:44:55;;;;;;;13.43;10.37;;;;;;;6.46;100.00;101191.28;5015674;28;20244;-58
2022/04/26 04:47:21;;;;;;;16.87;9.67;;;;;;;6.78;100.00;101197.19;5025199;28;20718;-59
2022/04/26 04:49:47;;;;;;;13.07;9.33;;;;;;;7.23;100.00;101195.50;5024268;28;20263;-57
2022/04/26 04:52:14;;;;;;;13.13;9.30;;;;;;;7.18;100.00;101204.13;5015243;28;20237;-56
2022/04/26 04:54:40;;;;;;;14.43;9.27;;;;;;;7.10;98.63;101210.94;5018182;28;20249;-56
2022/04/26 04:57:07;;;;;;;13.87;9.40;;;;;;;7.29;97.59;101211.31;5023795;28;20243;-57
2022/04/26 04:59:34;;;;;;;12.30;9.57;;;;;;;7.27;96.77;101213.03;5024739;28;20282;-57
2022/04/26 05:02:01;;;;;;;15.20;10.73;;;;;;;7.38;95.66;101214.09;5017009;28;20240;-55
2022/04/26 05:04:27;;;;;;;16.10;9.60;;;;;;;7.41;95.89;101216.78;5020514;28;20278;-56
2022/04/26 05:06:53;;;;;;;15.33;9.03;;;;;;;7.63;96.18;101205.88;5019642;28;20408;-57
2022/04/26 05:09:20;;;;;;;15.03;10.30;;;;;;;7.61;94.32;101218.03;5024281;28;20245;-56
2022/04/26 05:11:46;;;;;;;10.23;8.13;;;;;;;7.90;94.59;101212.47;5010125;28;20884;-58
2022/04/26 05:14:12;;;;;;;11.63;9.00;;;;;;;7.80;91.96;101221.00;5022231;28;20244;-57
2022/04/26 05:16:40;;;;;;;13.37;9.60;;;;;;;7.86;89.71;101221.09;5024254;28;20236;-58
2022/04/26 05:19:07;;;;;;;9.80;7.97;;;;;;;7.83;89.36;101223.69;5024762;28;20292;-57
2022/04/26 05:21:34;;;;;;;11.37;8.00;;;;;;;7.88;87.73;101220.28;5025061;28;20752;-56
2022/04/26 05:26:44;;;;;;;13.57;7.77;;;;;;;7.84;86.74;101217.59;5024565;28;20291;-57
2022/04/26 05:29:10;;;;;;;9.40;7.30;;;;;;;7.86;87.85;101227.22;5020205;28;20243;-56
2022/04/26 05:31:37;;;;;;;9.50;6.40;;;;;;;7.85;84.58;101224.56;5025047;28;20237;-57
2022/04/26 05:34:05;;;;;;;9.67;6.57;;;;;;;8.04;85.19;101225.78;5023986;28;20228;-57
2022/04/26 05:36:32;;;;;;;9.53;7.57;;;;;;;8.43;84.95;101225.59;5019842;28;20749;-57
2022/04/26 05:38:59;;;;;;;7.17;6.47;;;;;;;8.12;82.06;101230.28;5021402;28;20614;-57
2022/04/26 05:41:26;;;;;;;10.57;6.40;;;;;;;8.30;84.73;101234.94;5021067;28;20260;-57
2022/04/26 05:43:52;;;;;;;9.43;6.73;;;;;;;8.33;81.94;101239.34;5024144;28;20247;-57
2022/04/26 05:46:19;;;;;;;10.47;5.90;;;;;;;8.56;82.87;101232.78;5018653;28;20757;-57
2022/04/26 05:48:45;;;;;;;8.20;6.10;;;;;;;8.50;77.07;101239.66;5020164;28;20594;-57
2022/04/26 05:51:13;;;;;;;7.47;5.60;;;;;;;8.40;77.37;101246.47;5021763;28;20310;-57
2022/04/26 05:53:39;;;;;;;6.77;6.07;;;;;;;8.36;77.74;101232.41;5018075;28;20256;-57
2022/04/26 05:56:06;;;;;;;7.60;5.47;;;;;;;8.55;80.27;101241.47;5025116;28;20342;-58
2022/04/26 05:58:32;;;;;;;6.13;5.33;;;;;;;9.08;79.74;101243.09;5023038;28;20232;-56
2022/04/26 06:00:59;;;;;;;6.43;5.80;;;;;;;8.86;73.80;101244.53;5023951;28;20236;-57
2022/04/26 06:03:25;;;;;;;5.40;4.83;;;;;;;8.74;74.67;101242.63;5029207;28;20286;-58
2022/04/26 06:05:52;;;;;;;8.53;5.37;;;;;;;8.87;77.42;101240.19;5028627;28;20236;-56
2022/04/26 06:08:19;;;;;;;6.50;5.23;;;;;;;9.01;74.50;101239.50;5025773;28;20240;-56
2022/04/26 06:10:46;;;;;;;10.70;5.67;;;;;;;9.08;74.58;101243.09;5010178;28;20233;-57
2022/04/26 06:13:12;;;;;;;7.50;5.93;;;;;;;8.98;71.69;101236.84;5014559;28;20233;-57
2022/04/26 06:15:39;;;;;;;7.17;4.90;;;;;;;9.27;75.76;101234.63;5027317;28;20245;-58
2022/04/26 06:18:05;;;;;;;10.23;5.83;;;;;;;9.18;71.09;101229.25;5028016;28;20240;-57
2022/04/26 06:20:32;;;;;;;7.70;5.50;;;;;;;9.28;74.51;101225.00;5022841;28;20780;-56
2022/04/26 06:22:59;;;;;;;7.07;6.37;;;;;;;9.39;69.39;101223.38;5017040;28;20294;-57
2022/04/26 06:25:26;;;;;;;9.30;5.97;;;;;;;9.06;69.40;101235.22;5027478;28;20256;-57
2022/04/26 06:27:53;;;;;;;8.30;5.50;;;;;;;9.21;71.34;101231.03;5026854;28;20244;-56
2022/04/26 06:30:19;;;;;;;6.03;5.17;;;;;;;9.28;70.79;101227.63;5026107;28;20699;-57
2022/04/26 06:32:45;;;;;;;9.73;6.27;;;;;;;9.30;68.68;101225.88;5027451;28;20288;-58
2022/04/26 06:35:12;;;;;;;7.40;4.83;;;;;;;9.51;67.68;101227.88;5025293;28;20296;-57
2022/04/26 06:37:38;;;;;;;5.60;5.00;;;;;;;9.47;65.80;101232.22;5026155;28;20591;-57
2022/04/26 06:40:06;;;;;;;7.07;4.17;;;;;;;9.81;67.04;101227.34;5026753;28;20232;-56
2022/04/26 06:42:34;;;;;;;6.40;4.27;;;;;;;9.79;63.93;101239.53;5011074;28;20694;-57
2022/04/26 06:45:00;;;;;;;6.20;4.20;;;;;;;9.75;61.73;101233.41;5027656;28;20236;-56
2022/04/26 06:47:26;;;;;;;10.53;5.87;;;;;;;9.80;62.69;101230.84;5026554;28;20313;-56
2022/04/26 06:49:53;;;;;;;9.43;5.33;;;;;;;9.90;61.02;101234.41;5024938;28;20240;-56
2022/04/26 06:52:19;;;;;;;5.23;3.90;;;;;;;10.07;65.13;101235.44;5021721;28;20283;-57
2022/04/26 06:54:46;;;;;;;5.90;4.40;;;;;;;10.14;58.96;101233.75;5024908;28;20256;-57
2022/04/26 06:57:12;;;;;;;4.03;3.00;;;;;;;10.23;56.91;101237.34;5026040;28;20316;-56
2022/04/26 06:59:41;;;;;;;6.97;3.20;;;;;;;10.32;57.94;101236.59;5026686;28;20320;-57
2022/04/26 07:02:07;;;;;;;4.37;3.20;;;;;;;10.20;55.48;101232.06;5032067;28;20686;-57
2022/04/26 07:04:34;;;;;;;4.43;2.83;;;;;;;10.39;57.63;101237.50;5027649;28;20236;-56
2022/04/26 07:07:01;;;;;;;2.73;2.20;;;;;;;10.55;59.25;101243.75;5025001;28;20849;-56
2022/04/26 07:09:27;;;;;;;4.27;2.77;;;;;;;10.74;54.52;101245.66;5022128;28;20722;-56
2022/04/26 07:11:54;;;;;;;3.90;2.53;;;;;;;10.71;55.28;101243.88;5027283;28;20291;-57
2022/04/26 07:14:20;;;;;;;3.77;2.47;;;;;;;10.73;52.54;101243.88;5025221;28;20225;-56
2022/04/26 07:16:49;;;;;;;4.70;2.37;;;;;;;10.75;51.71;101243.03;5026783;28;20240;-56
2022/04/26 07:19:16;;;;;;;3.83;2.40;;;;;;;10.90;54.76;101249.25;5011914;28;20229;-57
2022/04/26 07:21:44;;;;;;;2.13;1.90;;;;;;;11.01;57.14;101249.31;5027154;28;20250;-58
2022/04/26 07:24:11;;;;;;;4.00;3.10;;;;;;;11.05;50.60;101256.31;5022860;28;20236;-56
2022/04/26 07:26:38;;;;;;;3.03;2.43;;;;;;;10.84;49.53;101247.44;5027660;28;20675;-57
2022/04/26 07:29:05;;;;;;;3.93;2.13;;;;;;;11.04;49.29;101259.84;5026541;28;20731;-57
2022/04/26 07:31:31;;;;;;;2.70;2.33;;;;;;;11.11;51.63;101261.63;5027206;28;20235;-57
2022/04/26 07:36:43;;;;;;;3.17;2.30;;;;;;;11.41;49.10;101256.50;5028539;28;20240;-59
2022/04/26 07:39:09;;;;;;;3.47;2.07;;;;;;;11.62;47.36;101260.09;5021762;28;20224;-58
2022/04/26 07:41:36;;;;;;;3.80;2.00;;;;;;;11.67;47.47;101258.34;5026312;28;20237;-57
2022/04/26 07:44:03;;;;;;;2.65;2.03;;;;;;;11.87;51.37;101251.41;5019793;28;20232;-57
2022/04/26 07:46:29;;;;;;;1.73;1.60;;;;;;;11.87;48.60;101247.91;5025776;28;20249;-56
2022/04/26 07:48:56;;;;;;;1.90;1.80;;;;;;;11.91;46.20;101255.81;5024508;28;20665;-55
2022/04/26 07:51:24;;;;;;;3.80;2.13;;;;;;;11.89;45.52;101262.81;5025969;28;20233;-56
2022/04/26 07:53:51;;;;;;;2.10;1.92;;;;;;;11.96;45.02;101257.56;5025420;28;20228;-56
2022/04/26 07:56:17;;;;;;;2.95;1.73;;;;;;;11.90;44.94;101256.69;5023109;28;20232;-60
2022/04/26 07:58:44;;;;;;;4.55;2.38;;;;;;;11.93;45.54;101254.06;5021671;28;20278;-57
2022/04/26 08:01:10;;;;;;;2.45;2.20;;;;;;;12.06;45.69;101257.56;5026224;28;20237;-57
2022/04/26 08:03:36;;;;;;;2.88;2.20;;;;;;;12.05;46.91;101261.09;5019293;28;20252;-57
2022/04/26 08:06:03;;;;;;;7.03;2.60;;;;;;;11.96;49.44;101265.47;5025301;28;20316;-57
2022/04/26 08:08:31;;;;;;;3.72;2.38;;;;;;;12.07;45.99;101266.34;5024216;28;20236;-57
2022/04/26 08:10:58;;;;;;;2.70;2.25;;;;;;;12.36;46.34;101266.41;5026705;28;20788;-57
2022/04/26 08:13:24;;;;;;;2.70;2.50;;;;;;;12.31;43.58;101274.28;5030922;28;20224;-57
2022/04/26 08:15:50;;;;;;;4.70;1.92;;;;;;;12.59;43.16;101269.88;5034201;28;20277;-57
2022/04/26 08:18:17;;;;;;;2.88;2.10;;;;;;;12.50;42.70;101276.94;5030814;28;20228;-57
2022/04/26 08:20:44;;;;;;;1.98;1.80;;;;;;;12.54;44.59;101273.41;5038666;28;20286;-57
2022/04/26 08:23:11;;;;;;;2.72;2.00;;;;;;;12.46;42.92;101277.78;5026653;28;20305;-57
2022/04/26 08:28:24;;;;;;;3.42;1.70;;;;;;;12.80;41.59;101279.53;5023155;28;20804;-58
2022/04/26 08:30:51;;;;;;;3.88;2.17;;;;;;;13.07;41.43;101277.72;5031622;28;20244;-57
2022/04/26 08:33:18;;;;;;;2.17;1.70;;;;;;;13.19;41.52;101277.66;5028787;28;20722;-58
2022/04/26 08:35:44;;;;;;;2.78;2.15;;;;;;;13.29;41.03;101276.78;5021621;28;20244;-58
2022/04/26 08:38:11;;;;;;;3.10;2.38;;;;;;;13.27;41.40;101275.94;5023741;28;20247;-57
2022/04/26 08:40:42;;;;;;;1.70;1.60;;;;;;;13.64;44.28;101281.06;5016185;28;20302;-57
2022/04/26 08:43:08;;;;;;;3.60;1.95;;;;;;;13.52;40.30;101281.13;5024098;28;20224;-58
2022/04/26 08:45:38;;;;;;;3.03;1.83;;;;;;;13.76;42.94;101283.66;5023101;28;20240;-58
2022/04/26 08:51:03;;;;;;;2.00;1.77;;;;;;;13.60;43.63;101289.88;5006016;28;20268;-57
2022/04/26 08:53:30;;;;;;;2.17;1.90;;;;;;;13.86;40.15;101281.81;5022430;28;20631;-56
2022/04/26 08:56:01;;;;;;;2.47;2.28;;;;;;;13.88;41.15;101285.31;5014069;28;20279;-56
2022/04/26 08:58:29;;;;;;;1.75;1.65;;;;;;;14.08;42.15;101283.44;5014969;28;20296;-57
2022/04/26 09:01:10;;;;;;;2.50;2.13;;;;;;;14.30;40.78;101284.16;5006314;28;20757;-57
2022/04/26 09:03:37;;;;;;;2.42;2.10;;;;;;;14.58;39.37;101283.97;5017221;28;20226;-57
2022/04/26 09:06:07;;;;;;;5.38;2.60;;;;;;;14.41;37.19;101291.13;5022983;28;20240;-56
2022/04/26 09:08:34;;;;;;;3.67;2.78;;;;;;;14.06;39.46;101282.56;5019295;28;20732;-57
2022/04/26 09:11:03;;;;;;;3.28;2.10;;;;;;;14.28;42.56;101285.06;5015600;28;20302;-57
2022/04/26 09:13:38;;;;;;;4.72;2.63;;;;;;;14.55;40.95;101291.94;5020858;28;20244;-57
2022/04/26 09:16:06;;;;;;;3.78;3.08;;;;;;;14.39;40.78;101292.91;5010573;28;20293;-57
2022/04/26 09:18:32;;;;;;;2.47;2.25;;;;;;;14.68;39.47;101290.94;5012964;28;20234;-58
2022/04/26 09:21:09;;;;;;;2.60;2.38;;;;;;;14.89;39.59;101294.28;5009003;28;20456;-58
2022/04/26 09:23:39;;;;;;;2.97;2.75;;;;;;;15.16;39.14;101294.00;5023949;28;20232;-57
2022/04/26 09:26:08;;;;;;;2.83;2.45;;;;;;;15.47;37.82;101283.03;5023198;28;20228;-57
2022/04/26 09:28:36;;;;;;;4.75;2.20;;;;;;;15.61;38.50;101283.72;5013568;28;20236;-57
2022/04/26 09:31:16;;;;;;;3.00;2.47;;;;;;;15.62;38.81;101288.16;5024669;28;20232;-56
2022/04/26 09:33:47;;;;;;;3.28;2.58;;;;;;;15.59;39.85;101282.91;5023089;28;20698;-56
2022/04/26 09:36:14;;;;;;;2.90;2.55;;;;;;;15.44;36.12;101283.97;5023220;28;20240;-57
2022/04/26 09:38:42;;;;;;;3.20;2.90;;;;;;;15.31;37.01;101281.50;5035413;28;20702;-57
2022/04/26 09:41:10;;;;;;;3.92;2.75;;;;;;;15.49;38.52;101275.97;5028450;28;20288;-57
2022/04/26 09:43:37;;;;;;;4.20;2.80;;;;;;;15.75;37.58;101273.00;5027650;28;20240;-57
2022/04/26 09:46:06;;;;;;;2.70;2.50;;;;;;;15.90;36.77;101277.19;5013470;28;20232;-57
2022/04/26 09:48:35;;;;;;;2.30;2.10;;;;;;;16.06;36.83;101272.56;5024663;28;20310;-57
2022/04/26 09:51:02;;;;;;;2.35;2.15;;;;;;;16.26;37.43;101272.25;5027463;28;20236;-58
2022/04/26 09:53:32;;;;;;;2.67;2.03;;;;;;;16.35;36.94;101269.44;5025420;28;21303;-60
2022/04/26 09:56:00;;;;;;;3.55;2.35;;;;;;;16.43;36.98;101268.44;5012070;28;20717;-57
2022/04/26 09:58:29;;;;;;;3.22;2.75;;;;;;;16.51;36.73;101272.75;5007560;28;20333;-57
2022/04/26 10:00:57;;;;;;;2.95;2.60;;;;;;;16.60;35.55;101264.59;5020046;28;20243;-57
2022/04/26 10:03:26;;;;;;;3.00;2.60;;;;;;;16.39;37.40;101271.16;5027830;28;20229;-57
2022/04/26 10:05:59;;;;;;;4.30;2.72;;;;;;;16.69;36.86;101275.94;5026611;28;20260;-56
2022/04/26 10:08:29;;;;;;;2.55;2.45;;;;;;;16.96;35.42;101278.16;5021566;28;20232;-57
2022/04/26 10:10:55;;;;;;;4.25;2.40;;;;;;;17.15;36.46;101272.47;5021824;28;21815;-56
2022/04/26 10:13:35;;;;;;;2.80;2.30;;;;;;;16.92;36.41;101272.03;5009340;28;20273;-57
2022/04/26 10:16:05;;;;;;;4.57;2.70;;;;;;;16.87;34.25;101271.25;4999744;28;20233;-56
2022/04/26 10:18:38;;;;;;;4.10;2.85;;;;;;;16.65;34.82;101273.38;5008693;28;20364;-58
2022/04/26 10:21:05;;;;;;;3.20;2.45;;;;;;;16.58;35.37;101271.72;5026478;28;20307;-57
2022/04/26 10:24:05;;;;;;;3.78;2.10;;;;;;;16.35;36.29;101270.31;5028195;28;20228;-56
2022/04/26 10:26:31;;;;;;;2.25;2.13;;;;;;;16.77;34.52;101269.66;5025626;28;20834;-56
2022/04/26 10:28:59;;;;;;;2.78;2.25;;;;;;;16.97;34.58;101274.59;5025895;28;20299;-57
2022/04/26 10:31:37;;;;;;;3.55;2.60;;;;;;;16.96;33.71;101267.56;5025689;28;20245;-56
2022/04/26 10:34:16;;;;;;;4.53;2.55;;;;;;;17.31;33.86;101269.53;5026972;28;20232;-56
2022/04/26 10:36:43;;;;;;;3.63;3.28;;;;;;;17.38;33.69;101264.03;5026949;28;20236;-58
2022/04/26 10:39:25;;;;;;;3.00;2.70;;;;;;;17.55;34.11;101271.66;5025955;28;20256;-57
2022/04/26 10:41:53;;;;;;;3.05;2.80;;;;;;;17.55;32.37;101276.97;5023486;28;20282;-59
2022/04/26 10:44:23;;;;;;;2.45;2.25;;;;;;;17.30;34.20;101263.31;5017302;28;20257;-57
2022/04/26 10:47:35;;;;;;;2.88;2.67;;;;;;;17.39;34.41;101262.25;5024271;28;20240;-57
2022/04/26 10:50:05;;;;;;;3.25;2.53;;;;;;;17.88;32.37;101261.22;5015346;28;20306;-56
2022/04/26 10:52:41;;;;;;;1.90;1.80;;;;;;;17.51;31.77;101267.31;5005274;28;20248;-56
2022/04/26 10:55:09;;;;;;;2.47;2.20;;;;;;;17.01;33.54;101263.91;5026289;28;20238;-57
2022/04/26 10:57:36;;;;;;;2.33;2.13;;;;;;;16.52;35.38;101259.44;5021818;28;20316;-57
2022/04/26 11:00:06;;;;;;;5.57;2.78;;;;;;;16.45;33.42;101265.75;5014908;28;21466;-56
2022/04/26 11:02:35;;;;;;;2.42;2.22;;;;;;;16.63;33.26;101273.38;5022768;28;20622;-57
2022/04/26 11:05:03;;;;;;;2.40;2.03;;;;;;;16.32;32.49;101267.75;5013808;28;20233;-57
2022/04/26 11:07:30;;;;;;;2.70;2.20;;;;;;;16.97;33.55;101264.00;5027043;28;20241;-57
2022/04/26 11:09:58;;;;;;;3.72;2.70;;;;;;;16.96;33.25;101267.56;5020931;28;20707;-56
2022/04/26 11:12:25;;;;;;;2.70;2.50;;;;;;;16.81;35.51;101266.03;5020521;28;20913;-56
2022/04/26 11:14:53;;;;;;;2.83;2.53;;;;;;;17.18;32.89;101261.78;5021181;28;20283;-60
2022/04/26 11:17:21;;;;;;;5.75;3.45;;;;;;;17.35;33.41;101260.59;5020176;28;20229;-57
2022/04/26 11:19:50;;;;;;;2.85;2.45;;;;;;;17.65;32.42;101265.25;5022667;28;20706;-56
2022/04/26 11:22:18;;;;;;;3.20;3.00;;;;;;;17.97;31.51;101261.03;5026462;28;20286;-57
2022/04/26 11:30:17;;;;;;;2.90;2.13;;;;;;;17.38;32.73;101265.84;5025046;28;20953;-57
2022/04/26 11:32:44;;;;;;;2.83;2.63;;;;;;;18.06;33.17;101270.56;5016419;28;20241;-57
2022/04/26 11:35:12;;;;;;;4.82;2.90;;;;;;;17.28;31.68;101274.88;5011093;28;20261;-55
2022/04/26 11:37:44;;;;;;;9.63;3.20;;;;;;;17.40;31.32;101269.31;5025588;28;20236;-57
2022/04/26 11:40:11;;;;;;;3.33;2.70;;;;;;;17.49;32.14;101263.81;5003329;28;20708;-56
2022/04/26 11:42:39;;;;;;;7.25;2.55;;;;;;;17.79;30.44;101261.44;5019034;28;20231;-56
2022/04/26 11:45:08;;;;;;;2.30;2.10;;;;;;;18.26;31.85;101268.31;5020418;28;20300;-56
2022/04/26 11:47:43;;;;;;;2.47;2.25;;;;;;;18.68;29.52;101276.13;5024412;28;20310;-57
2022/04/26 11:50:13;;;;;;;2.58;2.38;;;;;;;19.03;29.11;101272.53;5003902;28;20241;-58
2022/04/26 11:52:40;;;;;;;3.53;2.03;;;;;;;19.08;29.12;101273.28;5022888;28;20879;-58
2022/04/26 11:55:07;;;;;;;2.92;2.47;;;;;;;19.19;31.77;101272.13;5021409;28;20302;-57
2022/04/26 11:57:33;;;;;;;3.17;2.65;;;;;;;19.28;29.05;101271.88;5039512;28;20245;-55
2022/04/26 12:00:00;;;;;;;2.72;2.53;;;;;;;18.40;29.79;101260.00;5023066;28;20240;-56
2022/04/26 12:02:29;;;;;;;2.50;2.30;;;;;;;18.66;30.12;101272.63;5022741;28;20266;-57
2022/04/26 12:04:56;;;;;;;2.78;2.58;;;;;;;17.86;31.43;101273.66;5020228;28;20770;-57
2022/04/26 12:07:24;;;;;;;2.67;2.47;;;;;;;18.91;31.64;101270.22;5012030;28;20452;-57
2022/04/26 12:09:52;;;;;;;3.78;3.05;;;;;;;18.65;31.71;101272.66;5015548;28;20251;-58
2022/04/26 12:12:20;;;;;;;2.67;2.47;;;;;;;19.21;29.11;101270.28;5017174;28;20244;-56
2022/04/26 12:14:50;;;;;;;2.80;2.50;;;;;;;20.09;30.04;101263.25;5021907;28;20628;-56
2022/04/26 12:17:18;;;;;;;2.63;2.42;;;;;;;20.82;26.64;101268.81;5023564;28;20294;-56
2022/04/26 12:19:50;;;;;;;3.10;2.90;;;;;;;20.36;26.55;101259.69;5017253;28;20313;-55
2022/04/26 12:22:16;;;;;;;3.20;2.40;;;;;;;20.06;27.35;101263.34;5019489;28;20352;-58
2022/04/26 12:24:48;;;;;;;2.05;1.85;;;;;;;20.37;28.70;101260.53;5018756;28;20287;-57
2022/04/26 12:27:16;;;;;;;3.38;2.38;;;;;;;20.28;27.24;101256.38;5026431;28;20510;-58
2022/04/26 12:29:44;;;;;;;5.20;2.35;;;;;;;20.92;26.27;101259.56;5021024;28;20236;-57
2022/04/26 12:32:14;;;;;;;4.72;2.38;;;;;;;21.49;25.67;101254.81;5022833;28;20236;-55
2022/04/26 12:34:47;;;;;;;2.63;2.40;;;;;;;21.53;24.57;101252.91;5018521;28;20312;-58
2022/04/26 12:37:20;;;;;;;3.28;2.47;;;;;;;21.61;25.06;101259.69;5020378;28;20236;-58
2022/04/26 12:39:50;;;;;;;4.10;2.70;;;;;;;20.63;25.92;101257.88;5016367;28;20236;-56
2022/04/26 12:42:18;;;;;;;2.47;2.25;;;;;;;21.13;25.71;101251.66;5001690;28;20233;-57
2022/04/26 12:44:53;;;;;;;2.70;2.20;;;;;;;21.48;24.57;101246.84;5003775;28;20251;-57
2022/04/26 12:52:52;;;;;;;2.97;2.28;;;;;;;20.26;28.48;101245.78;5020312;28;20327;-56
2022/04/26 12:55:29;;;;;;;2.50;2.30;;;;;;;20.08;29.46;101241.03;5021480;28;20237;-57
2022/04/26 12:57:58;;;;;;;2.92;2.63;;;;;;;19.43;29.14;101251.91;5018925;28;20298;-57
2022/04/26 13:00:26;;;;;;;3.65;2.47;;;;;;;19.64;28.48;101239.75;5017269;28;20264;-56
2022/04/26 13:02:54;;;;;;;2.90;2.70;;;;;;;19.66;29.02;101240.59;5006453;28;20280;-56
2022/04/26 13:05:21;;;;;;;2.65;2.45;;;;;;;19.15;29.51;101231.41;5013399;28;20245;-56
2022/04/26 13:07:48;;;;;;;3.80;2.47;;;;;;;18.85;29.17;101241.13;5021444;28;20236;-56
2022/04/26 13:10:15;;;;;;;2.30;2.10;;;;;;;18.55;29.77;101237.44;5021280;28;20244;-55
2022/04/26 13:12:43;;;;;;;2.25;2.15;;;;;;;18.18;29.82;101226.84;5019218;28;20228;-58
2022/04/26 13:15:10;;;;;;;3.00;2.30;;;;;;;18.04;28.83;101230.75;5022231;28;20233;-56
2022/04/26 13:17:36;;;;;;;2.10;1.90;;;;;;;17.79;29.32;101235.72;5021320;28;20306;-57
2022/04/26 13:20:04;;;;;;;2.17;1.98;;;;;;;17.50;33.21;101230.19;5025869;28;20228;-57
2022/04/26 13:22:30;;;;;;;2.60;2.40;;;;;;;16.81;34.96;101231.56;5028372;28;20246;-57
2022/04/26 13:24:56;;;;;;;4.25;2.45;;;;;;;16.71;34.18;101220.25;5024817;28;20232;-57
2022/04/26 13:27:23;;;;;;;12.20;2.90;;;;;;;16.65;32.57;101225.66;5024287;28;20314;-56
2022/04/26 13:29:51;;;;;;;4.90;3.17;;;;;;;16.52;33.50;101230.28;5021644;28;20240;-57
2022/04/26 13:32:18;;;;;;;4.75;2.58;;;;;;;16.30;33.59;101228.91;5026261;28;20232;-54
2022/04/26 13:34:45;;;;;;;4.90;3.25;;;;;;;16.16;31.60;101226.50;5026095;28;20231;-56
2022/04/26 13:37:11;;;;;;;3.47;2.20;;;;;;;16.64;31.66;101230.09;5027116;28;20245;-55
2022/04/26 13:39:39;;;;;;;5.78;2.85;;;;;;;16.91;31.07;101225.19;5025840;28;20316;-57
2022/04/26 13:42:06;;;;;;;3.00;2.42;;;;;;;16.68;31.17;101221.16;5026157;28;20240;-56
2022/04/26 13:44:33;;;;;;;2.28;2.05;;;;;;;16.75;31.59;101216.66;5026081;28;20274;-56
2022/04/26 13:47:02;;;;;;;2.67;2.47;;;;;;;17.09;30.77;101213.31;5026461;28;20318;-54
2022/04/26 13:49:29;;;;;;;3.67;2.45;;;;;;;17.00;31.24;101209.09;5024589;28;20224;-55
2022/04/26 13:51:55;;;;;;;4.57;2.13;;;;;;;17.47;30.32;101212.53;5026150;28;20244;-54
2022/04/26 13:54:22;;;;;;;2.40;2.20;;;;;;;17.67;30.32;101213.88;5022523;28;20298;-54
2022/04/26 13:56:49;;;;;;;2.30;2.10;;;;;;;17.95;30.55;101215.00;5017242;28;20468;-54
2022/04/26 13:59:16;;;;;;;4.22;2.33;;;;;;;18.20;29.52;101215.28;5022848;28;20239;-57
2022/04/26 14:01:42;;;;;;;4.28;2.53;;;;;;;18.46;27.88;101211.97;5024322;28;20232;-60
2022/04/26 14:04:10;;;;;;;4.28;2.92;;;;;;;18.40;28.34;101213.94;5024830;28;20240;-56
2022/04/26 14:06:36;;;;;;;2.60;2.40;;;;;;;18.54;27.76;101214.44;5025476;28;20426;-56
2022/04/26 14:09:03;;;;;;;2.40;1.88;;;;;;;18.29;28.44;101214.19;5023902;28;20658;-55
2022/04/26 14:11:32;;;;;;;2.38;2.17;;;;;;;17.97;28.61;101207.91;5026562;28;20264;-54
2022/04/26 14:22:08;;;;;;;2.22;1.50;;;;;;;17.41;30.46;101212.69;4985900;28;20470;-56
2022/04/26 14:24:34;;;;;;;3.00;2.42;;;;;;;17.26;31.13;101211.19;5025319;28;20239;-55
2022/04/26 14:27:01;;;;;;;3.17;2.83;;;;;;;17.07;31.72;101207.19;5025009;28;20240;-56
2022/04/26 14:29:28;;;;;;;2.10;1.90;;;;;;;17.10;30.73;101212.44;5025568;28;20306;-57
2022/04/26 14:31:54;;;;;;;2.33;2.15;;;;;;;17.24;30.36;101206.84;5024117;28;20785;-57
2022/04/26 14:34:22;;;;;;;2.47;2.20;;;;;;;16.89;31.06;101205.78;5020682;28;20237;-56
2022/04/26 14:36:49;;;;;;;2.47;2.03;;;;;;;17.03;30.65;101205.50;5024303;28;20256;-56
2022/04/26 14:39:16;;;;;;;2.33;1.92;;;;;;;16.91;30.57;101207.47;5023198;28;20228;-56
2022/04/26 14:41:43;;;;;;;4.30;2.47;;;;;;;16.89;30.17;101211.09;5021399;28;20764;-58
2022/04/26 14:44:09;;;;;;;2.20;2.00;;;;;;;16.73;31.04;101205.16;5025645;28;20229;-56
2022/04/26 14:46:36;;;;;;;3.10;2.30;;;;;;;16.66;31.49;101207.03;5023864;28;20247;-56
2022/04/26 14:49:02;;;;;;;5.88;2.05;;;;;;;16.32;31.16;101205.91;5024667;28;20298;-56
2022/04/26 14:51:29;;;;;;;2.05;1.85;;;;;;;16.35;31.25;101205.84;5021710;28;20294;-57
2022/04/26 14:53:56;;;;;;;2.10;1.88;;;;;;;16.34;32.50;101204.09;5021999;28;20430;-55
2022/04/26 14:56:23;;;;;;;2.50;2.03;;;;;;;16.01;33.17;101198.47;5025221;28;20435;-56
2022/04/26 14:58:50;;;;;;;3.30;2.33;;;;;;;16.21;31.96;101200.78;5025500;28;20530;-55
2022/04/26 15:01:16;;;;;;;2.13;2.03;;;;;;;16.27;32.40;101202.47;5025643;28;20229;-55
2022/04/26 15:03:44;;;;;;;2.20;1.92;;;;;;;16.55;30.81;101203.72;5026115;28;20655;-56
2022/04/26 15:06:10;;;;;;;2.33;1.88;;;;;;;16.75;30.15;101211.34;5018769;28;20257;-55
2022/04/26 15:11:22;;;;;;;2.00;1.75;;;;;;;16.82;29.93;101206.81;5021092;28;20239;-57
2022/04/26 15:16:38;;;;;;;1.75;1.65;;;;;;;16.46;31.51;101207.44;5013044;28;20423;-55
2022/04/26 15:19:09;;;;;;;1.95;1.80;;;;;;;16.46;31.33;101211.84;5020465;28;20552;-57
2022/04/26 15:21:35;;;;;;;2.38;2.17;;;;;;;16.45;32.29;101210.09;5023802;28;20318;-57
2022/04/26 15:24:02;;;;;;;2.97;1.85;;;;;;;16.57;31.94;101203.72;5021203;28;20232;-55
2022/04/26 15:26:30;;;;;;;3.25;2.10;;;;;;;16.62;31.40;101209.78;5025263;28;20257;-56
2022/04/26 15:28:57;;;;;;;1.60;1.50;;;;;;;16.63;31.46;101209.75;5022867;28;20244;-57
2022/04/26 15:31:23;;;;;;;2.47;1.90;;;;;;;16.60;31.80;101217.78;5024209;28;20635;-57
2022/04/26 15:33:51;;;;;;;1.90;1.80;;;;;;;16.55;32.19;101218.75;5021049;28;20592;-55
2022/04/26 15:36:18;;;;;;;2.22;1.90;;;;;;;16.40;33.24;101211.97;5016026;28;20311;-56
2022/04/26 15:38:45;;;;;;;3.03;2.45;;;;;;;16.28;34.23;101209.50;5019581;28;20502;-55